Championnat de France Moyenne Distance (WRE) BOURBACH-LE-BAS (68) - C-G

Date : 09/05/2026
Valeur du circuit : 14128027 point × seconde

Place Nom Licence Catégorie Club Temps CN à J-15 Valeur Points Différence Nouveau CN
1 VERJUX Lucas 38619 H20 2508BF 0:29:23 7435 13107905 8014 +579 7594
2 WENZEL Anton 33337 H20 8404PZ 0:29:44 7425 13246200 7919 +494 7494
3 DUFOUR Célestin 24526 H20 2606AR 0:29:49 7455 13336995 7897 +442 7482
4 DEGAND Théo 32796 H20 4204AR 0:30:17 7296 13256832 7775 +479 7393
5 ANDRIEUX Titouan 27574 H18 7305AR 0:32:24 6723 13069512 7268 +545 6898
6 PRADEAU Emmanuel 32859 H18 6307AR 0:32:33 7207 14075271 7234 +27 7281
7 COCCHIO-JOURNET Paul 34350 H20 1905NA 0:32:58 7133 14109074 7143 +10 7246
8 BLONDEAU-TOINY Célian 30242 H20 5407GE 0:33:09 7103 6869
9 PECOURT Noé 27694 H20 2904BR 0:33:31 7238 14555618 7025 -213 7388
10 CALANDRY Simon 25985 H18 7404AR 0:33:33 7396 14888148 7018 -378 7506
11 MILHAU Bazile 40370 H18 4201AR 0:33:57 6115 12456255 6936 +821 6172
12 REGNARD Maé 41405 H18 2108BF 0:34:05 6936 14184120 6909 -27 6937
13 BROUWIER Mathis 44445 H20 0207HF 0:34:14 7020 14419080 6878 -142 7091
14 LEMERCIER Tom 27788 H18 5703GE 0:34:45 5969 12445365 6776 +807 6176
15 ZYLA Hugo 43330 H18 7707IF 0:34:54 4871 10199874 6747 +1876 5229
16 HERGOTT Robin 31352 H18 3914BF 0:35:44 5820 12478080 6590 +770 5937
17 PARZYCH Tom 27836 H18 3323NA 0:35:50 5990 12878500 6571 +581 6242
18 VENON Arthur 25161 H20 2105BF 0:35:51 6079 13075929 6568 +489 6321
19 BRASSART Elouan 21229 H20 1403NM 0:36:49 6580 14535220 6396 -184 6591
20 LEGRAND Romain 39851 H18 0111AR 0:36:58 5733 12715794 6370 +637 5959
21 PERRET Noé 34449 H18 0109AR 0:37:39 5528 12487752 6254 +726 5879
22 AUNEAU Quentin 29902 H20 6806GE 0:37:53 5893 13394789 6216 +323 6281
23 MAZY Arnaud 45115 H20 5906HF 0:38:03 6105 13937715 6188 +83 6194
24 BROCHOT Rémi 38485 H20 7716IF 0:38:33 7146 16528698 6108 -1038 7207
25 BOUCHERIE Achille 40152 H18 7716IF 0:39:47 5531 13202497 5919 +388 5660
26 BARROS-VALLET Armel 41753 H20 1307PZ 0:39:58 5409 12970782 5892 +483 5547
27 SALLES Timéo 39623 H20 3323NA 0:40:01 5888 14137088 5884 -4 5760
28 TALON Armand 33624 H20 8607NA 0:40:18 6726 16263468 5843 -883 6830
29 VEROVE Vianney 35558 H20 5907HF 0:40:50 5264 12896800 5767 +503 5518
30 LATIL Maïeul 28695 H20 1303PZ 0:40:52 5729 14047508 5762 +33 5749
31 BARRIERE Arthur 29441 H20 3319NA 0:41:46 5820 14584920 5638 -182 5836
32 MOTHERON Nathan 40482 H20 6208HF 0:42:00 5111 12879720 5606 +495
33 GODEAU Cyril 36863 H18 6008HF 0:42:06 5377 13582302 5593 +216 5517
34 HERAULT Mathieu 30203 H18 4601OC 0:43:05 6669 17239365 5465 -1204 6897
35 BRAULT Leo 34968 H18 9105IF 0:43:12 5755 14916960 5451 -304 5745
36 CHIFFLET Albin 26295 H20 0705AR 0:43:36 5792 15151872 5401 -391 5792
37 BOILEAU Allan 41976 H20 3323NA 0:43:38 6226 16299668 5396 -830 6262
38 BILARDU Timéo 45644 H20 0504PZ 0:43:39 5160 13514040 5394 +234 5296
39 COLLARD Tristan 40039 H20 5116GE 0:44:05 5034 13314930 5341 +307 5204
40 MIDENA Rafaël 41467 H20 4203AR 0:44:09 5229 13851621 5333 +104 5599
41 GAUDION Gaël 26024 H18 8404PZ 0:44:21 4684 12464124 5309 +625
42 JAYET Alexis 37104 H20 6208HF 0:44:56 4352 11732992 5240 +888 4776
43 TRIBOUT Maël 41221 H20 5703GE 0:45:11 6359 17239249 5211 -1148 6224
44 TROCHUT Nathaël 34988 H18 7309AR 0:45:39 5278 14456442 5158 -120 5505
45 GRIMAULT Arthur 30884 H18 8607NA 0:45:53 5380 14811140 5132 -248 5407
46 CLEMENT Léo 47196 H18 2517BF 0:46:12 4207 11661804 5097 +890 4578
47 MEYER Armand 40395 H18 6803GE 0:46:16 4837 13427512 5089 +252 4918
48 MONTUS Jules 33527 H20 4012NA 0:47:03 5890 16627470 5005 -885 5890
49 GOURAPA Maël 36565 H20 2108BF 0:47:14 4751 13464334 4985 +234 4873
50 CHOULEUR Arthur 37075 H18 4201AR 0:47:40 5185 14829100 4940 -245 5219
51 JURADO Mathéo 40214 H20 4705NA 0:47:48 4809 13792212 4926 +117 4896
52 DISCHER David 30794 H20 5703GE 0:48:23 6468 18776604 4867 -1601 6330
53 MARIENNE Tom 35092 H20 7707IF 0:48:27 6032 17535024 4860 -1172 6199
54 STRID Nils 32978 H18 8607NA 0:48:36 4496 13110336 4845 +349 4683
55 RAVAT Thibault 38531 H20 2108BF 0:49:10 4585 13525750 4789 +204 5062
56 BRIERE Titouan 29996 H20 3105OC 0:49:26 5634 16710444 4763 -871 5634
57 VENOT Florent 41268 H18 1307PZ 0:50:17 4591 13851047 4683 +92 4547
58 RISBEC Titouan 28460 H18 6806GE 0:50:39 4714 14325846 4649 -65 5036
59 HARTNAGEL Gustave 46529 H18 0109AR 0:50:46 5498 16746908 4638 -860 5283
60 FOLTZER Albin 30903 H18 2517BF 0:50:56 4733 14464048 4623 -110 4883
61 JEANJEAN-ARZUL Aubin 47037 H18 0615PZ 0:50:58 4200 12843600 4620 +420 4516
62 BROUWIER Victor 44446 H18 0207HF 0:51:11 5399 16580329 4600 -799 5042
63 MAVET Jules 33270 H18 0207HF 0:51:40 4590 14229000 4557 -33 4617
64 FROMMELT Denis 34783 H20 6804GE 0:52:27 4647 14624109 4489 -158 4651
65 MICHEL Valentin 42368 H18 5116GE 0:52:38 4203 4474 +271
66 SCATAMACCHIA Nathan 47165 H20 4201AR 0:52:50 5227 4457 -770 5227
67 CHAMP Guilhem 31674 H18 3319NA 0:53:23 4824 4411 -413 4867
68 HUBAC Hugolin 40504 H18 0703AR 0:53:36 3939 4393 +454 4206
69 VANSCHUYTBROECK Régis 46049 H20 0207HF 0:53:43 5436 4384 -1052 5212
70 DAGUET Tim 41546 H18 1408NM 0:54:17 4976 4338 -638 5095
71 FILLON Hélian 30430 H20 4708NA 0:54:46 4748 4299 -449 4748
72 SANCHEZ Gabriel 37655 H18 6008HF 0:55:14 5136 4263 -873 5149
73 PARISOT Ethan 40389 H18 0207HF 0:55:26 4595 4248 -347 4631
74 HUGUET Thomas 33679 H18 2604AR 0:56:46 5502 4148 -1354 5502
75 DEZORME Léo 37926 H18 2904BR 0:57:02 4019 4129 +110 4548
76 SUBSOL Nicolas 37226 H20 3408OC 0:57:05 4512 4125 -387 4490
77 FOUCHIER Victor 39572 H18 1303PZ 0:57:08 4430 4121 -309 4483
78 FRANCOIS Maël 40112 H18 1408NM 0:57:52 3690 4069 +379 4110
79 HRYHOROVYCH Oleksii 47918 H18 1307PZ 0:57:57 4081 4063 -18 4105
80 FRISON Gabriel 44206 H18 7305AR 1:00:14 4046 3909 -137 4136
81 FIEUJEAN Gabriel 46479 H18 0109AR 1:01:14 5124 3845 -1279 5051
82 BOURBON Valentin 43343 H18 8404PZ 1:01:39 4320 3819 -501 4373
83 SOLBES-WILMET Jules 36485 H18 1705NA 1:02:24 4964 3774 -1190 4988
84 ELLISSECHE Toan 39454 H18 4012NA 1:02:53 3825 3745 -80 3603
85 NEE Alexis 35647 H18 0705AR 1:03:10 3543 3728 +185 3654
86 BAROZZI Louis 47152 H18 3323NA 1:04:00 4039 3679 -360 4191
87 BARBARIT Romain 46559 H20 7407AR 1:04:55 3678 3627 -51 3661
88 KURTZ Esteban 41437 H18 9105IF 1:06:14 3967 3555 -412 4022
89 QUARANTA Dany 38992 H20 5703GE 1:07:53 4100 3469 -631 3920
90 DEWASMES Valentin 49348 H18 6208HF 1:08:17 3710 3448 -262 3689
91 YEROFEIEV Hlib 43244 H18 2517BF 1:09:12 4394 3403 -991 4358
92 KORS Corentin 46785 H18 9105IF 1:10:07 4537 3358 -1179 4276
93 GRESLIER Louis 40636 H20 4504CE 1:14:09 4030 3176 -854 3919
94 DUFEY Gabriel 31856 H18 6008HF 1:14:47 4256 3149 -1107 4203
95 LEFRANCOIS Titouan 43231 H18 3913BF 1:42:00 3422 2309 -1113
MENARD Naori 39428 H18 4403PL abandon 3004 0 3004
HAEYAERT Jorys 43555 H20 5907HF abandon 3867 0 3681
MATHIEU Arthur 39939 H18 0111AR pm 5978 0 5978
FOURNEL MALSAND Anatole 41599 H18 4201AR pm 5697 0 5698
WIRTH Daniel 44931 H18 5703GE pm 3343 0 3343